Kewanee, IL (61443)

6:32 PM CDT on September 20, 2014 (GMT -0500)
Rockwell St. | Change Station
CLOSE
Current Station
Personal Weather Station
Location: Kewanee, IL
Elevation: 858 ft
Nearby Weather Stations

Elev 858 ft 41.24 °N, 89.93 °W | Updated 2 minutes ago

Overcast
Overcast
76.6 °F
Feels Like 78 °F
N
1.1
Wind Variable Wind from West

Today
High -- | Low -- °F
--% Chance of Precip.
Yesterday
High -- | Low -- °F
Precip. -- in
6:45 AM 7:00 PM
Waning Crescent, 10% visible
Pressure 29.84 in
Visibility 10.0 miles
Clouds Overcast 7000 ft
Heat Index 78 °F
Dew Point 69 °F
Humidity 77%
Rainfall 0.00 in
Snow Depth Not available.
UV 0 out of 12
Pollen 5.50 out of 12
Air Quality Not available.
Flu Activity Not available.
METAR KGBG 202315Z AUTO 24007KT 10SM OVC070 25/20 A2984 RMK AO2 T02510199

More Conditions Fewer Conditions

Pressure 29.84 in
Visibility 10.0 miles
Clouds Overcast 7000 ft
Heat Index 78 °F
Dew Point 69 °F
Humidity 77%
Rainfall 0.00 in
Snow Depth Not available.
UV 0 out of 12
Pollen 5.50 out of 12
Air Quality Not available.
Flu Activity Not available.
METAR KGBG 202315Z AUTO 24007KT 10SM OVC070 25/20 A2984 RMK AO2 T02510199

More Conditions Fewer Conditions

10-Day Weather Forecast

Almanac

Astronomy

Sep. 20, 2014 Rise Set
Actual Time 6:45 AM CDT 7:00 PM CDT
Civil Twilight 6:17 AM CDT 7:27 PM CDT
Nautical Twilight 5:45 AM CDT 8:00 PM CDT
Astronomical Twilight 5:12 AM CDT 8:33 PM CDT
Moon 3:22 AM CDT 5:05 PM CDT
Length of Visible Light 13h 10m
Length of Day
12h 15m
Tomorrow will be 2m 44s shorter.
Waning Crescent, 10% of the Moon is Illuminated
Today
Waning Crescent
Sep 24
New
Oct 1
First Quarter
Oct 8
Full
Oct 15
Last Quarter

Today's Extremes

State Highs State Lows

Community

WunderPhotos

Upload Photos

1,754,979 photos uploaded!

WunderBlogs® & News

Nearby

Snow Depth

Station Depth Elevation
No new snow has been reported.

Earthquake Activity

City Distance Mag. Time & Date
No recent earthquake activity has been reported nearby.
Minimum magnitude displayed is 2.5.

Coastal Water Temperatures

Place Temperature
No Stations Reporting

Nearby Weather Stations